createdAt,value
2019-02-27T00:01:05.921Z,68.17
2019-02-27T00:03:35.534Z,60.58
2019-02-27T00:06:04.917Z,62.30
2019-02-27T00:08:34.306Z,57.03
2019-02-27T00:11:04.078Z,64.37
2019-02-27T00:13:33.603Z,65.95
2019-02-27T00:16:03.070Z,75.95
2019-02-27T00:18:32.419Z,69.07
2019-02-27T00:21:01.820Z,68.17
2019-02-27T00:23:31.502Z,75.05
2019-02-27T00:26:00.856Z,63.15
2019-02-27T00:28:30.225Z,64.95
2019-02-27T00:30:59.760Z,60.28
2019-02-27T00:33:29.169Z,67.67
2019-02-27T00:35:58.534Z,67.85
2019-02-27T00:38:27.946Z,68.90
2019-02-27T00:40:57.311Z,65.40
2019-02-27T00:43:28.392Z,68.10
2019-02-27T00:45:57.936Z,67.87
2019-02-27T00:48:27.734Z,66.87
2019-02-27T00:50:57.088Z,66.10
2019-02-27T00:53:26.492Z,65.85
2019-02-27T00:55:55.856Z,62.83
2019-02-27T00:58:27.047Z,65.60
2019-02-27T01:01:15.408Z,63.90
2019-02-27T01:03:44.862Z,67.03
2019-02-27T01:06:14.651Z,61.15
2019-02-27T01:08:44.932Z,63.37
2019-02-27T01:11:18.118Z,63.10
2019-02-27T01:13:45.683Z,60.80
2019-02-27T01:16:17.327Z,64.00
2019-02-27T01:18:46.096Z,66.72
2019-02-27T01:21:19.091Z,62.83
2019-02-27T01:23:46.442Z,63.95
2019-02-27T01:26:15.758Z,58.80
2019-02-27T01:28:45.632Z,60.65
2019-02-27T01:31:15.151Z,61.80
2019-02-27T01:33:44.566Z,59.10
2019-02-27T01:36:13.978Z,64.55
2019-02-27T01:38:43.331Z,67.10
2019-02-27T01:41:12.696Z,70.87
2019-02-27T01:43:42.059Z,65.92
2019-02-27T01:46:11.577Z,60.50
2019-02-27T01:48:43.593Z,65.95
2019-02-27T01:51:11.933Z,66.73
2019-02-27T01:53:41.316Z,64.00
2019-02-27T01:56:10.687Z,68.72
2019-02-27T01:58:43.291Z,69.22
2019-02-27T02:01:11.192Z,72.10
2019-02-27T02:03:40.462Z,67.55
2019-02-27T02:06:09.811Z,61.45
2019-02-27T02:08:39.283Z,59.58
2019-02-27T02:11:08.858Z,60.92
2019-02-27T02:13:50.114Z,67.90
2019-02-27T02:17:04.972Z,63.78
2019-02-27T02:20:15.739Z,62.15
2019-02-27T02:23:22.344Z,66.47
2019-02-27T02:26:27.260Z,65.50
2019-02-27T02:29:52.959Z,63.90
2019-02-27T02:32:52.053Z,66.60
2019-02-27T02:36:15.878Z,64.30
2019-02-27T02:39:28.386Z,66.00
2019-02-27T02:42:18.166Z,62.70
2019-02-27T02:45:32.776Z,66.67
2019-02-27T02:48:41.104Z,63.65
2019-02-27T02:51:52.325Z,63.83
2019-02-27T02:54:57.510Z,55.17
2019-02-27T02:57:40.166Z,65.43
2019-02-27T03:01:05.603Z,58.68
2019-02-27T03:03:48.200Z,59.48
2019-02-27T03:06:53.335Z,61.30
2019-02-27T03:09:31.737Z,64.45
2019-02-27T03:12:40.835Z,65.92
2019-02-27T03:15:41.420Z,59.40
2019-02-27T03:18:38.718Z,58.68
2019-02-27T03:22:10.425Z,59.27
2019-02-27T03:25:10.524Z,58.85
2019-02-27T03:28:04.875Z,65.03
2019-02-27T03:31:18.470Z,60.28
2019-02-27T03:34:27.612Z,61.60
2019-02-27T03:37:30.196Z,60.20
2019-02-27T03:40:39.177Z,62.40
2019-02-27T03:43:35.962Z,60.95
2019-02-27T03:47:01.139Z,57.93
2019-02-27T03:50:14.666Z,61.18
2019-02-27T03:53:11.888Z,61.05
2019-02-27T03:56:28.194Z,63.52
2019-02-27T03:59:34.496Z,60.60
2019-02-27T04:02:43.947Z,60.08
2019-02-27T04:05:58.707Z,62.40
2019-02-27T04:08:59.930Z,62.25
2019-02-27T04:11:29.609Z,60.28
2019-02-27T04:14:03.910Z,63.47
2019-02-27T04:16:31.776Z,64.67
2019-02-27T04:19:04.621Z,61.30
2019-02-27T04:21:31.857Z,66.62
2019-02-27T04:24:00.942Z,61.15
2019-02-27T04:26:30.016Z,62.27
2019-02-27T04:29:04.002Z,60.98
2019-02-27T04:31:30.736Z,62.80
2019-02-27T04:34:00.917Z,58.80
2019-02-27T04:36:30.496Z,63.23
2019-02-27T04:39:00.061Z,71.70
2019-02-27T04:41:30.415Z,61.73
2019-02-27T04:43:59.698Z,65.72
2019-02-27T04:46:29.093Z,61.15
2019-02-27T04:48:58.263Z,66.82
2019-02-27T04:51:27.546Z,62.05
2019-02-27T04:53:56.702Z,59.73
2019-02-27T04:56:25.831Z,62.78
2019-02-27T04:58:54.924Z,62.58
2019-02-27T05:01:24.038Z,60.45
2019-02-27T05:03:53.196Z,62.95
2019-02-27T05:06:22.331Z,66.50
2019-02-27T05:08:51.482Z,63.52
2019-02-27T05:11:20.587Z,65.32
2019-02-27T05:13:54.005Z,61.18
2019-02-27T05:16:21.260Z,68.52
2019-02-27T05:18:50.404Z,65.10
2019-02-27T05:21:19.794Z,69.90
2019-02-27T05:23:49.046Z,65.80
2019-02-27T05:26:18.166Z,69.50
2019-02-27T05:28:47.271Z,72.60
2019-02-27T05:31:19.057Z,69.22
2019-02-27T05:33:49.343Z,68.92
2019-02-27T05:36:18.534Z,65.62
2019-02-27T05:38:47.602Z,64.80
2019-02-27T05:41:17.074Z,66.37
2019-02-27T05:43:48.563Z,68.50
2019-02-27T05:46:16.953Z,71.35
2019-02-27T05:48:46.039Z,66.28
2019-02-27T05:51:15.551Z,66.72
2019-02-27T05:53:44.666Z,64.97
2019-02-27T05:56:16.262Z,65.85
2019-02-27T05:58:44.705Z,69.43
2019-02-27T06:01:13.881Z,69.25
2019-02-27T06:03:43.073Z,72.62
2019-02-27T06:06:12.493Z,69.85
2019-02-27T06:08:41.658Z,69.17
2019-02-27T06:11:10.744Z,68.75
2019-02-27T06:13:39.881Z,72.58
2019-02-27T06:16:09.357Z,67.17
2019-02-27T06:18:38.735Z,64.70
2019-02-27T06:21:08.182Z,69.03
2019-02-27T06:23:37.875Z,69.90
2019-02-27T06:26:07.843Z,70.45
2019-02-27T06:28:36.964Z,68.00
2019-02-27T06:31:06.150Z,72.12
2019-02-27T06:33:35.250Z,72.13
2019-02-27T06:36:05.354Z,72.20
2019-02-27T06:38:35.159Z,79.40
2019-02-27T06:41:04.320Z,79.00
2019-02-27T06:43:33.510Z,66.53
2019-02-27T06:46:02.607Z,71.67
2019-02-27T06:48:31.707Z,72.65
2019-02-27T06:51:01.538Z,73.90
2019-02-27T06:53:30.848Z,68.70
2019-02-27T06:56:02.920Z,66.72
2019-02-27T06:58:30.971Z,66.23
2019-02-27T07:01:00.059Z,65.45
2019-02-27T07:03:30.264Z,70.20
2019-02-27T07:06:00.047Z,68.45
2019-02-27T07:08:29.191Z,68.10
2019-02-27T07:11:09.895Z,63.78
2019-02-27T07:13:29.844Z,62.50
2019-02-27T07:15:59.222Z,67.27
2019-02-27T07:18:28.366Z,64.80
2019-02-27T07:20:58.427Z,67.45
2019-02-27T07:23:28.411Z,68.62
2019-02-27T07:25:57.685Z,66.70
2019-02-27T07:28:26.893Z,74.80
2019-02-27T07:30:56.079Z,68.65
2019-02-27T07:33:25.174Z,63.40
2019-02-27T07:35:54.251Z,69.60
2019-02-27T07:38:25.456Z,68.83
2019-02-27T07:40:54.313Z,62.45
2019-02-27T07:43:23.633Z,64.07
2019-02-27T07:45:54.290Z,60.85
2019-02-27T07:48:23.586Z,62.00
2019-02-27T07:50:52.698Z,68.27
2019-02-27T07:53:21.887Z,65.85
2019-02-27T07:55:52.474Z,62.88
2019-02-27T07:58:22.030Z,64.65
2019-02-27T08:00:51.118Z,59.88
2019-02-27T08:03:20.201Z,54.53
2019-02-27T08:05:49.387Z,52.40
2019-02-27T08:08:23.267Z,50.63
2019-02-27T08:10:49.324Z,50.38
2019-02-27T08:13:18.482Z,53.85
2019-02-27T08:15:47.622Z,50.28
2019-02-27T08:18:16.708Z,52.60
2019-02-27T08:20:45.890Z,48.08
2019-02-27T08:23:15.660Z,50.38
2019-02-27T08:25:44.943Z,45.75
2019-02-27T08:28:14.122Z,51.98
2019-02-27T08:30:43.247Z,46.30
2019-02-27T08:33:12.430Z,50.95
2019-02-27T08:35:41.613Z,45.95
2019-02-27T08:38:10.737Z,48.15
2019-02-27T08:40:39.857Z,47.60
2019-02-27T08:43:10.330Z,42.83
2019-02-27T08:45:40.075Z,41.68
2019-02-27T08:48:09.163Z,40.80
2019-02-27T08:50:38.286Z,40.75
2019-02-27T08:53:07.413Z,40.00
2019-02-27T08:55:38.990Z,40.28
2019-02-27T08:58:07.471Z,39.08
2019-02-27T09:00:36.834Z,45.20
2019-02-27T09:03:05.951Z,37.40
2019-02-27T09:05:35.113Z,39.70
2019-02-27T09:08:04.199Z,37.83
2019-02-27T09:10:33.384Z,49.23
2019-02-27T09:13:05.748Z,44.83
2019-02-27T09:15:33.301Z,46.83
2019-02-27T09:18:02.535Z,39.85
2019-02-27T09:20:31.888Z,45.30
2019-02-27T09:23:00.990Z,43.28
2019-02-27T09:25:30.172Z,47.78
2019-02-27T09:27:59.358Z,47.07
2019-02-27T09:30:29.477Z,44.75
2019-02-27T09:32:59.264Z,48.33
2019-02-27T09:35:32.533Z,44.08
2019-02-27T09:38:02.213Z,44.63
2019-02-27T09:40:31.373Z,48.02
2019-02-27T09:43:00.550Z,48.53
2019-02-27T09:45:31.152Z,44.42
2019-02-27T09:48:00.785Z,46.00
2019-02-27T09:50:38.209Z,41.43
2019-02-27T09:53:07.517Z,37.48
2019-02-27T09:55:36.723Z,35.58
2019-02-27T09:58:11.112Z,38.02
2019-02-27T10:00:46.130Z,47.95
2019-02-27T10:03:20.160Z,31.70
2019-02-27T10:05:47.827Z,29.48
2019-02-27T10:08:17.180Z,38.03
2019-02-27T10:10:46.494Z,36.50
2019-02-27T10:13:15.693Z,29.20
2019-02-27T10:15:45.000Z,30.13
2019-02-27T10:18:18.329Z,38.50
2019-02-27T10:20:45.222Z,30.60
2019-02-27T10:23:14.743Z,33.42
2019-02-27T10:25:44.237Z,34.03
2019-02-27T10:28:13.580Z,26.07
2019-02-27T10:30:42.954Z,27.70
2019-02-27T10:33:12.538Z,28.20
2019-02-27T10:35:41.775Z,28.75
2019-02-27T10:38:11.005Z,30.82
2019-02-27T10:40:40.266Z,30.37
2019-02-27T10:43:09.446Z,33.18
2019-02-27T10:45:38.737Z,35.23
2019-02-27T10:48:08.076Z,36.98
2019-02-27T10:50:37.368Z,28.75
2019-02-27T10:53:06.691Z,31.20
2019-02-27T10:55:36.038Z,27.48
2019-02-27T10:58:07.537Z,25.95
2019-02-27T11:00:36.935Z,26.55
2019-02-27T11:03:06.099Z,28.70
2019-02-27T11:05:35.370Z,28.02
2019-02-27T11:08:04.677Z,29.35
2019-02-27T11:10:33.819Z,30.92
2019-02-27T11:13:05.955Z,28.47
2019-02-27T11:15:34.094Z,29.72
2019-02-27T11:18:05.567Z,26.30
2019-02-27T11:20:34.395Z,24.33
2019-02-27T11:23:06.431Z,29.98
2019-02-27T11:25:34.535Z,23.12
2019-02-27T11:28:03.783Z,26.33
2019-02-27T11:30:36.868Z,33.07
2019-02-27T11:33:05.430Z,30.30
2019-02-27T11:35:34.615Z,32.25
2019-02-27T11:38:03.950Z,27.63
2019-02-27T11:40:33.428Z,30.45
2019-02-27T11:43:06.547Z,31.20
2019-02-27T11:45:34.121Z,22.32
2019-02-27T11:48:03.458Z,22.90
2019-02-27T11:50:32.879Z,24.45
2019-02-27T11:53:03.071Z,20.55
2019-02-27T11:55:32.491Z,20.68
2019-02-27T11:58:04.409Z,23.40
2019-02-27T12:00:33.487Z,20.08
2019-02-27T12:03:02.753Z,19.15
2019-02-27T12:05:34.293Z,20.73
2019-02-27T12:08:03.266Z,26.82
2019-02-27T12:10:32.677Z,33.65
2019-02-27T12:13:02.033Z,21.07
2019-02-27T12:15:31.450Z,19.35
2019-02-27T12:18:01.794Z,20.17
2019-02-27T12:20:31.226Z,24.95
2019-02-27T12:23:00.446Z,42.88
2019-02-27T12:25:30.206Z,21.75
2019-02-27T12:28:01.039Z,21.97
2019-02-27T12:30:30.360Z,24.57
2019-02-27T12:35:44.226Z,18.02
2019-02-27T12:38:12.462Z,17.75
2019-02-27T12:40:41.721Z,20.10
2019-02-27T12:43:11.075Z,24.77
2019-02-27T12:45:40.426Z,19.92
2019-02-27T12:48:12.587Z,22.00
2019-02-27T12:50:40.846Z,20.40
2019-02-27T12:53:10.267Z,22.27
2019-02-27T12:55:39.600Z,24.70
2019-02-27T12:58:08.949Z,24.23
2019-02-27T13:00:39.980Z,23.02
2019-02-27T13:03:09.669Z,34.55
2019-02-27T13:05:39.054Z,18.48
2019-02-27T13:08:08.454Z,20.02
2019-02-27T13:10:37.647Z,28.55
2019-02-27T13:13:06.938Z,17.98
2019-02-27T13:15:38.273Z,28.75
2019-02-27T13:18:07.207Z,14.63
2019-02-27T13:20:36.654Z,19.17
2019-02-27T13:23:06.072Z,15.53
2019-02-27T13:25:35.338Z,19.23
2019-02-27T13:28:04.694Z,17.52
2019-02-27T13:30:34.005Z,15.20
2019-02-27T13:33:03.333Z,15.32
2019-02-27T13:35:32.984Z,21.27
2019-02-27T13:38:02.257Z,13.18
2019-02-27T13:40:35.135Z,13.18
2019-02-27T13:43:02.684Z,18.35
2019-02-27T13:45:31.889Z,17.30
2019-02-27T13:48:04.890Z,14.47
2019-02-27T13:50:32.267Z,16.15
2019-02-27T13:53:01.625Z,13.48
2019-02-27T13:55:32.045Z,18.42
2019-02-27T13:58:03.587Z,20.57
2019-02-27T14:00:32.093Z,17.23
2019-02-27T14:03:01.217Z,25.92
2019-02-27T14:05:35.195Z,22.20
2019-02-27T14:08:01.282Z,24.25
2019-02-27T14:10:30.451Z,31.43
2019-02-27T14:12:59.637Z,23.90
2019-02-27T14:15:28.750Z,25.95
2019-02-27T14:17:57.953Z,29.18
2019-02-27T14:20:27.960Z,32.50
2019-02-27T14:22:58.209Z,19.13
2019-02-27T14:25:31.163Z,24.80
2019-02-27T14:28:02.192Z,19.60
2019-02-27T14:30:35.633Z,17.37
2019-02-27T14:33:05.095Z,21.30
2019-02-27T14:35:36.348Z,15.72
2019-02-27T14:38:05.262Z,18.50
2019-02-27T14:40:37.713Z,18.23
2019-02-27T14:43:05.751Z,18.42
2019-02-27T14:45:39.866Z,23.10
2019-02-27T14:48:05.770Z,25.35
2019-02-27T14:50:34.947Z,23.12
2019-02-27T14:53:04.453Z,33.98
2019-02-27T14:55:35.929Z,19.48
2019-02-27T14:58:04.706Z,16.97
2019-02-27T15:00:34.077Z,19.57
2019-02-27T15:03:03.554Z,14.38
2019-02-27T15:05:32.629Z,59.23
2019-02-27T15:08:02.056Z,18.92
2019-02-27T15:10:31.550Z,21.42
2019-02-27T15:13:00.815Z,25.52
2019-02-27T15:15:30.340Z,18.37
2019-02-27T15:17:59.820Z,17.42
2019-02-27T15:20:29.199Z,22.80
2019-02-27T15:22:58.366Z,17.52
2019-02-27T15:25:27.895Z,19.23
2019-02-27T15:27:58.810Z,20.65
2019-02-27T15:30:28.962Z,18.07
2019-02-27T15:32:58.153Z,26.77
2019-02-27T15:35:29.341Z,16.10
2019-02-27T15:37:58.428Z,22.98
2019-02-27T15:40:29.587Z,21.20
2019-02-27T15:42:58.627Z,20.72
2019-02-27T15:45:28.065Z,19.87
2019-02-27T15:47:57.126Z,17.73
2019-02-27T15:50:26.355Z,20.25
2019-02-27T15:52:55.536Z,27.45
2019-02-27T15:55:24.798Z,23.77
2019-02-27T15:57:54.276Z,14.23
2019-02-27T16:00:23.969Z,20.45
2019-02-27T16:02:53.240Z,21.45
2019-02-27T16:05:22.607Z,15.57
2019-02-27T16:07:51.858Z,15.98
2019-02-27T16:10:21.770Z,18.85
2019-02-27T16:12:50.993Z,28.12
2019-02-27T16:15:21.799Z,20.72
2019-02-27T16:17:50.876Z,19.90
2019-02-27T16:20:20.448Z,18.57
2019-02-27T16:22:49.570Z,24.23
2019-02-27T16:25:20.376Z,22.37
2019-02-27T16:27:49.590Z,23.55
2019-02-27T16:30:20.934Z,21.45
2019-02-27T16:32:50.144Z,22.98
2019-02-27T16:35:19.341Z,22.27
2019-02-27T16:37:48.597Z,19.57
2019-02-27T16:40:19.032Z,17.57
2019-02-27T16:42:48.226Z,17.67
2019-02-27T16:45:19.237Z,16.75
2019-02-27T16:47:48.326Z,15.40
2019-02-27T16:50:23.920Z,17.57
2019-02-27T16:52:50.116Z,20.88
2019-02-27T16:55:20.645Z,22.40
2019-02-27T16:57:49.806Z,17.62
2019-02-27T17:00:21.450Z,18.55
2019-02-27T17:02:50.724Z,17.87
2019-02-27T17:05:20.127Z,16.30
2019-02-27T17:07:49.554Z,35.23
2019-02-27T17:10:21.861Z,24.65
2019-02-27T17:12:51.051Z,27.15
2019-02-27T17:15:23.183Z,17.95
2019-02-27T17:17:53.234Z,19.37
2019-02-27T17:20:24.150Z,18.48
2019-02-27T17:22:53.577Z,20.40
2019-02-27T17:25:22.685Z,18.42
2019-02-27T17:27:53.556Z,21.73
2019-02-27T17:30:27.843Z,31.68
2019-02-27T17:32:57.156Z,38.53
2019-02-27T17:35:26.314Z,39.63
2019-02-27T17:37:55.584Z,37.23
2019-02-27T17:40:24.722Z,42.05
2019-02-27T17:42:54.450Z,30.02
2019-02-27T17:45:23.852Z,36.23
2019-02-27T17:47:52.993Z,27.17
2019-02-27T17:50:22.205Z,19.87
2019-02-27T17:52:51.462Z,22.90
2019-02-27T17:55:20.777Z,31.43
2019-02-27T17:57:50.299Z,32.53
2019-02-27T18:00:25.768Z,22.63
2019-02-27T18:02:54.898Z,22.58
2019-02-27T18:05:25.299Z,23.10
2019-02-27T18:07:54.902Z,31.65
2019-02-27T18:10:24.018Z,24.50
2019-02-27T18:12:53.184Z,28.47
2019-02-27T18:15:22.375Z,21.42
2019-02-27T18:17:51.654Z,25.08
2019-02-27T18:20:24.166Z,24.13
2019-02-27T18:22:52.018Z,24.20
2019-02-27T18:28:12.539Z,19.07
2019-02-27T18:30:42.712Z,23.25
2019-02-27T18:33:14.359Z,24.55
2019-02-27T18:35:43.131Z,22.20
2019-02-27T18:38:12.323Z,23.27
2019-02-27T18:40:42.774Z,22.75
2019-02-27T18:43:12.427Z,26.07
2019-02-27T18:45:41.516Z,22.70
2019-02-27T18:48:10.885Z,23.12
2019-02-27T18:50:40.049Z,22.40
2019-02-27T18:53:13.079Z,22.05
2019-02-27T18:55:40.251Z,20.65
2019-02-27T18:58:09.490Z,19.57
2019-02-27T19:00:38.584Z,21.07
2019-02-27T19:03:08.362Z,21.70
2019-02-27T19:05:40.856Z,20.68
2019-02-27T19:08:08.533Z,21.95
2019-02-27T19:10:41.358Z,19.02
2019-02-27T19:13:08.803Z,23.00
2019-02-27T19:15:37.907Z,18.17
2019-02-27T19:18:07.423Z,22.05
2019-02-27T19:20:36.900Z,22.32
2019-02-27T19:23:06.451Z,21.23
2019-02-27T19:25:35.834Z,25.57
2019-02-27T19:28:05.113Z,20.57
2019-02-27T19:30:34.823Z,23.22
2019-02-27T19:33:04.180Z,22.02
2019-02-27T19:35:33.356Z,22.02
2019-02-27T19:38:02.554Z,25.50
2019-02-27T19:40:31.597Z,19.30
2019-02-27T19:43:01.816Z,18.40
2019-02-27T19:45:30.948Z,18.85
2019-02-27T19:48:00.119Z,18.62
2019-02-27T19:50:29.300Z,23.83
2019-02-27T19:53:03.368Z,20.30
2019-02-27T19:55:29.270Z,17.02
2019-02-27T19:57:58.383Z,25.82
2019-02-27T20:00:33.900Z,17.75
2019-02-27T20:03:01.152Z,16.77
2019-02-27T20:05:29.535Z,17.77
2019-02-27T20:07:58.825Z,16.90
2019-02-27T20:10:30.990Z,14.20
2019-02-27T20:12:58.829Z,13.90
2019-02-27T20:15:28.036Z,16.10
2019-02-27T20:17:57.302Z,14.47
2019-02-27T20:20:26.593Z,15.18
2019-02-27T20:22:56.130Z,15.10
2019-02-27T20:25:25.831Z,15.43
2019-02-27T20:27:57.796Z,15.05
2019-02-27T20:30:26.467Z,15.08
2019-02-27T20:32:55.764Z,16.43
2019-02-27T20:35:24.875Z,15.28
2019-02-27T20:37:53.960Z,13.65
2019-02-27T20:40:23.087Z,15.72
2019-02-27T20:42:54.839Z,14.80
2019-02-27T20:45:23.349Z,13.10
2019-02-27T20:47:57.800Z,15.10
2019-02-27T20:50:35.909Z,17.32
2019-02-27T20:53:05.263Z,12.80
2019-02-27T20:55:34.538Z,13.15
2019-02-27T20:58:03.758Z,14.18
2019-02-27T21:00:35.921Z,14.30
2019-02-27T21:03:03.995Z,15.58
2019-02-27T21:05:33.484Z,26.97
2019-02-27T21:08:02.766Z,24.98
2019-02-27T21:10:32.734Z,21.93
2019-02-27T21:13:02.589Z,18.60
2019-02-27T21:15:32.358Z,38.30
2019-02-27T21:18:02.636Z,23.60
2019-02-27T21:20:33.259Z,32.45
2019-02-27T21:23:02.473Z,20.48
2019-02-27T21:25:31.601Z,17.50
2019-02-27T21:28:01.094Z,21.87
2019-02-27T21:30:30.252Z,15.38
2019-02-27T21:32:59.354Z,19.15
2019-02-27T21:35:29.876Z,18.63
2019-02-27T21:37:59.223Z,17.65
2019-02-27T21:40:28.288Z,13.88
2019-02-27T21:42:57.399Z,14.70
2019-02-27T21:45:26.503Z,11.93
2019-02-27T21:47:55.611Z,12.05
2019-02-27T21:50:24.868Z,12.23
2019-02-27T21:52:54.733Z,16.65
2019-02-27T21:55:25.015Z,10.43
2019-02-27T21:57:54.123Z,15.03
2019-02-27T22:00:24.299Z,13.07
2019-02-27T22:02:53.830Z,15.50
2019-02-27T22:05:23.049Z,17.67
2019-02-27T22:07:52.146Z,19.27
2019-02-27T22:10:21.635Z,15.43
2019-02-27T22:12:50.756Z,22.07
2019-02-27T22:15:23.225Z,12.23
2019-02-27T22:17:52.718Z,10.32
2019-02-27T22:20:25.910Z,12.35
2019-02-27T22:22:54.559Z,15.10
2019-02-27T22:25:23.686Z,21.75
2019-02-27T22:27:52.753Z,13.63
2019-02-27T22:30:21.857Z,14.23
2019-02-27T22:32:50.934Z,12.80
2019-02-27T22:35:20.054Z,14.38
2019-02-27T22:37:52.475Z,13.08
2019-02-27T22:40:19.988Z,9.28
2019-02-27T22:42:49.362Z,38.70
2019-02-27T22:45:18.671Z,31.17
2019-02-27T22:47:47.778Z,18.77
2019-02-27T22:50:16.935Z,14.60
2019-02-27T22:52:46.082Z,20.95
2019-02-27T22:55:15.223Z,17.65
2019-02-27T22:57:44.299Z,10.77
2019-02-27T23:01:04.264Z,13.75
2019-02-27T23:03:36.758Z,11.63
2019-02-27T23:06:09.282Z,10.00
2019-02-27T23:08:39.143Z,9.50
2019-02-27T23:11:08.971Z,10.48
2019-02-27T23:13:38.194Z,8.55
2019-02-27T23:16:07.648Z,10.03
2019-02-27T23:18:37.340Z,10.72
2019-02-27T23:21:07.622Z,9.60
2019-02-27T23:23:37.438Z,13.72
2019-02-27T23:26:06.663Z,9.33
2019-02-27T23:28:35.753Z,12.35
2019-02-27T23:31:05.187Z,9.90
2019-02-27T23:33:36.629Z,11.83
2019-02-27T23:36:05.065Z,8.18
2019-02-27T23:38:35.010Z,9.50
2019-02-27T23:41:05.122Z,13.93
2019-02-27T23:43:35.119Z,11.10
2019-02-27T23:46:04.486Z,10.88
2019-02-27T23:48:36.087Z,11.90
2019-02-27T23:51:04.638Z,12.13
2019-02-27T23:53:33.778Z,20.60
2019-02-27T23:56:02.932Z,18.32
2019-02-27T23:58:32.010Z,11.20
